Time;durP1;ratioP1;P1;durP2;ratioP2;P2;SDS_P1;SDS_P2;PMS_P1;PMS_P2;Temp;Humidity;BMP_temperature;BMP_pressure;BME280_temperature;BME280_humidity;BME280_pressure;Samples;Min_cycle;Max_cycle;Signal;HPM_P1;HPM_P2
2022/12/28 00:00:20;;;;;;;28.02;6.15;;;;;;;;;;5012406;28;20081;-38
2022/12/28 00:02:47;;;;;;;27.90;6.43;;;;;;;;;;5012243;28;20057;-39
2022/12/28 00:05:16;;;;;;;26.83;6.15;;;;;;;;;;5012288;28;20033;-39
2022/12/28 00:07:44;;;;;;;26.02;5.45;;;;;;;;;;5012034;28;20034;-39
2022/12/28 00:10:10;;;;;;;30.27;6.47;;;;;;;;;;5012251;28;20022;-39
2022/12/28 00:12:37;;;;;;;31.23;6.03;;;;;;;;;;5012158;28;20022;-38
2022/12/28 00:15:05;;;;;;;25.55;5.75;;;;;;;;;;5012189;28;20041;-39
2022/12/28 00:17:31;;;;;;;22.88;5.38;;;;;;;;;;5015283;28;20029;-39
2022/12/28 00:19:58;;;;;;;29.55;6.13;;;;;;;;;;5016121;28;20032;-38
2022/12/28 00:22:27;;;;;;;28.73;4.97;;;;;;;;;;5015918;28;20088;-39
2022/12/28 00:24:54;;;;;;;23.25;5.47;;;;;;;;;;5016104;28;20057;-39
2022/12/28 00:27:21;;;;;;;22.63;5.53;;;;;;;;;;5015889;28;20037;-39
2022/12/28 00:29:48;;;;;;;34.63;6.78;;;;;;;;;;5028752;28;20552;-38
2022/12/28 00:32:15;;;;;;;22.42;5.78;;;;;;;;;;5025986;28;20030;-39
2022/12/28 00:34:41;;;;;;;47.42;7.35;;;;;;;;;;5025307;28;20052;-39
2022/12/28 00:37:08;;;;;;;42.08;8.15;;;;;;;;;;5024181;28;20034;-39
2022/12/28 00:39:35;;;;;;;52.60;7.75;;;;;;;;;;5024665;28;20045;-39
2022/12/28 00:42:02;;;;;;;111.85;13.93;;;;;;;;;;5031199;28;20045;-39
2022/12/28 00:44:30;;;;;;;54.15;9.80;;;;;;;;;;5035019;28;20072;-39
2022/12/28 00:46:56;;;;;;;76.40;10.90;;;;;;;;;;5034861;28;20047;-38
2022/12/28 00:49:23;;;;;;;54.33;9.13;;;;;;;;;;5034844;28;20036;-39
2022/12/28 00:51:50;;;;;;;71.05;11.00;;;;;;;;;;5028761;28;20030;-40
2022/12/28 00:54:17;;;;;;;74.07;10.48;;;;;;;;;;5023056;28;20146;-40
2022/12/28 00:56:45;;;;;;;62.50;9.93;;;;;;;;;;5020845;28;20030;-40
2022/12/28 00:59:12;;;;;;;60.63;10.50;;;;;;;;;;5027638;28;20041;-38
2022/12/28 01:01:39;;;;;;;78.80;11.18;;;;;;;;;;5030759;28;20036;-40
2022/12/28 01:04:06;;;;;;;78.53;10.90;;;;;;;;;;5019314;28;20030;-40
2022/12/28 01:06:33;;;;;;;67.55;11.38;;;;;;;;;;5023230;28;20029;-40
2022/12/28 01:09:01;;;;;;;77.43;11.27;;;;;;;;;;5024450;28;20063;-40
2022/12/28 01:11:29;;;;;;;65.55;10.85;;;;;;;;;;5023986;28;20036;-41
2022/12/28 01:13:58;;;;;;;81.75;12.90;;;;;;;;;;5021871;28;20040;-41
2022/12/28 01:16:26;;;;;;;61.13;10.80;;;;;;;;;;5025406;28;20038;-40
2022/12/28 01:18:55;;;;;;;73.82;12.57;;;;;;;;;;5020973;28;20108;-40
2022/12/28 01:21:24;;;;;;;88.68;11.48;;;;;;;;;;5015778;28;20033;-40
2022/12/28 01:23:57;;;;;;;61.45;11.93;;;;;;;;;;5018907;28;20388;-40
2022/12/28 01:26:25;;;;;;;61.78;11.30;;;;;;;;;;5022129;28;20472;-40
2022/12/28 01:28:54;;;;;;;75.97;12.07;;;;;;;;;;5022266;28;20124;-41
2022/12/28 01:31:21;;;;;;;72.07;12.55;;;;;;;;;;5024082;28;20030;-41
2022/12/28 01:33:49;;;;;;;70.07;12.88;;;;;;;;;;5023394;28;20025;-42
2022/12/28 01:36:16;;;;;;;71.45;12.85;;;;;;;;;;5025201;28;20024;-42
2022/12/28 01:38:43;;;;;;;62.85;12.07;;;;;;;;;;5023752;28;20107;-42
2022/12/28 01:41:12;;;;;;;57.60;13.32;;;;;;;;;;5022799;28;20048;-42
2022/12/28 01:43:41;;;;;;;50.17;12.65;;;;;;;;;;5031333;28;20028;-42
2022/12/28 01:46:13;;;;;;;61.70;13.07;;;;;;;;;;5033621;28;20439;-42
2022/12/28 01:48:44;;;;;;;63.28;13.55;;;;;;;;;;5033675;28;20112;-43
2022/12/28 01:51:11;;;;;;;69.88;16.27;;;;;;;;;;5033791;28;20025;-42
2022/12/28 01:53:40;;;;;;;62.25;15.02;;;;;;;;;;5028890;28;20028;-43
2022/12/28 01:56:07;;;;;;;64.38;14.50;;;;;;;;;;5027752;28;20108;-42
2022/12/28 01:58:34;;;;;;;46.10;11.80;;;;;;;;;;5033345;28;20479;-41
2022/12/28 02:01:02;;;;;;;48.15;10.20;;;;;;;;;;5030729;28;20062;-41
2022/12/28 02:03:31;;;;;;;38.95;9.63;;;;;;;;;;5018311;28;20036;-41
2022/12/28 02:05:59;;;;;;;31.60;7.82;;;;;;;;;;5024885;28;20928;-42
2022/12/28 02:08:44;;;;;;;36.72;7.28;;;;;;;;;;5023399;28;20048;-42
2022/12/28 02:11:13;;;;;;;49.75;8.10;;;;;;;;;;5029985;28;20361;-48
2022/12/28 02:13:42;;;;;;;52.33;7.88;;;;;;;;;;5031726;28;20033;-42
2022/12/28 02:16:10;;;;;;;43.53;7.47;;;;;;;;;;5033214;28;20060;-42
2022/12/28 02:18:38;;;;;;;47.30;6.65;;;;;;;;;;5033182;28;20448;-43
2022/12/28 02:21:16;;;;;;;36.42;6.80;;;;;;;;;;5033105;28;20021;-41
2022/12/28 02:23:46;;;;;;;39.92;5.47;;;;;;;;;;5023549;28;20037;-42
2022/12/28 02:26:32;;;;;;;33.72;6.53;;;;;;;;;;5019407;28;20038;-42
2022/12/28 02:29:17;;;;;;;92.00;12.13;;;;;;;;;;5014798;28;20025;-44
2022/12/28 02:32:02;;;;;;;66.68;9.02;;;;;;;;;;5023704;28;20557;-44
2022/12/28 02:34:42;;;;;;;60.03;8.68;;;;;;;;;;5023403;28;20025;-44
2022/12/28 02:37:14;;;;;;;51.50;7.70;;;;;;;;;;5021042;28;20552;-45
2022/12/28 02:39:44;;;;;;;52.97;7.95;;;;;;;;;;5020199;28;20049;-46
2022/12/28 02:42:12;;;;;;;66.00;7.40;;;;;;;;;;5002273;28;20423;-43
2022/12/28 02:50:14;;;;;;;56.08;7.35;;;;;;;;;;5030950;28;20049;-41
2022/12/28 02:52:56;;;;;;;57.75;7.45;;;;;;;;;;5026630;28;20117;-43
2022/12/28 02:56:07;;;;;;;66.80;6.93;;;;;;;;;;5013907;28;20449;-41
2022/12/28 02:58:36;;;;;;;34.15;5.82;;;;;;;;;;5022204;28;20037;-40
2022/12/28 03:01:09;;;;;;;36.00;5.80;;;;;;;;;;5025465;28;20036;-42
2022/12/28 03:03:40;;;;;;;35.20;5.25;;;;;;;;;;5027181;28;20030;-41
2022/12/28 03:09:16;;;;;;;32.28;5.40;;;;;;;;;;5015654;28;20790;-40
2022/12/28 03:11:46;;;;;;;38.25;5.53;;;;;;;;;;5019688;28;20112;-40
2022/12/28 03:14:16;;;;;;;29.02;5.35;;;;;;;;;;4996553;28;20427;-40
2022/12/28 03:33:28;;;;;;;33.17;5.05;;;;;;;;;;5021913;28;20391;-40
2022/12/28 03:35:59;;;;;;;35.17;5.53;;;;;;;;;;5020801;28;20029;-40
2022/12/28 03:38:30;;;;;;;27.40;4.97;;;;;;;;;;5022694;28;20552;-41
2022/12/28 03:41:07;;;;;;;30.67;4.72;;;;;;;;;;5021381;28;20069;-40
2022/12/28 03:44:01;;;;;;;28.23;5.40;;;;;;;;;;5021131;28;20105;-39
2022/12/28 03:46:32;;;;;;;37.65;5.38;;;;;;;;;;5016986;28;20041;-40
2022/12/28 03:48:59;;;;;;;30.00;5.05;;;;;;;;;;5013827;28;20030;-40
2022/12/28 03:51:27;;;;;;;26.17;4.68;;;;;;;;;;5011551;28;20108;-39
2022/12/28 03:53:54;;;;;;;25.17;4.53;;;;;;;;;;5012274;28;20080;-39
2022/12/28 03:56:23;;;;;;;26.55;4.93;;;;;;;;;;5012085;28;20034;-40
2022/12/28 03:58:50;;;;;;;33.13;6.32;;;;;;;;;;5012334;28;20037;-38
2022/12/28 04:01:17;;;;;;;28.20;5.50;;;;;;;;;;4994733;28;20511;-39
2022/12/28 04:03:44;;;;;;;33.85;5.30;;;;;;;;;;5011818;28;20392;-40
2022/12/28 04:06:15;;;;;;;30.25;5.18;;;;;;;;;;5012294;28;20042;-39
2022/12/28 04:08:45;;;;;;;31.02;5.78;;;;;;;;;;5011606;28;20066;-40
2022/12/28 04:11:12;;;;;;;24.92;5.00;;;;;;;;;;5008377;28;20026;-39
2022/12/28 04:13:39;;;;;;;40.95;6.43;;;;;;;;;;5007983;28;20030;-39
2022/12/28 04:16:08;;;;;;;38.78;5.20;;;;;;;;;;5011809;28;20041;-39
2022/12/28 04:18:35;;;;;;;37.70;5.80;;;;;;;;;;5012078;28;20053;-39
2022/12/28 04:21:02;;;;;;;32.35;6.25;;;;;;;;;;5012117;28;20604;-39
2022/12/28 04:23:30;;;;;;;32.67;5.25;;;;;;;;;;5011788;28;20160;-39
2022/12/28 04:26:07;;;;;;;28.23;4.82;;;;;;;;;;5012156;28;20034;-39
2022/12/28 04:28:34;;;;;;;26.35;5.18;;;;;;;;;;5012053;28;20033;-39
2022/12/28 04:31:02;;;;;;;23.10;4.80;;;;;;;;;;5011757;28;20694;-38
2022/12/28 04:33:32;;;;;;;21.13;4.38;;;;;;;;;;5011924;28;20097;-39
2022/12/28 04:36:13;;;;;;;17.85;4.07;;;;;;;;;;5012060;28;20030;-39
2022/12/28 04:38:40;;;;;;;27.50;4.50;;;;;;;;;;5012081;28;20022;-39
2022/12/28 04:41:07;;;;;;;20.10;3.97;;;;;;;;;;5011647;28;20173;-38
2022/12/28 04:43:34;;;;;;;25.83;4.50;;;;;;;;;;5011816;28;20049;-39
2022/12/28 04:46:02;;;;;;;19.45;3.83;;;;;;;;;;5011808;28;20022;-39
2022/12/28 04:48:29;;;;;;;26.58;4.43;;;;;;;;;;5011889;28;20026;-39
2022/12/28 04:50:56;;;;;;;27.13;4.93;;;;;;;;;;5011942;28;20552;-38
2022/12/28 04:53:24;;;;;;;25.20;4.40;;;;;;;;;;5011734;28;20022;-39
2022/12/28 04:55:51;;;;;;;18.05;4.20;;;;;;;;;;5011903;28;20025;-39
2022/12/28 04:58:18;;;;;;;25.75;4.43;;;;;;;;;;5011719;28;20496;-39
2022/12/28 05:00:46;;;;;;;21.63;3.85;;;;;;;;;;5011842;28;20504;-40
2022/12/28 05:03:13;;;;;;;23.00;4.38;;;;;;;;;;4996262;28;20033;-39
2022/12/28 05:05:40;;;;;;;15.85;3.40;;;;;;;;;;5015426;28;20057;-39
2022/12/28 05:08:07;;;;;;;26.50;4.80;;;;;;;;;;5015252;28;20117;-39
2022/12/28 05:10:33;;;;;;;26.15;4.93;;;;;;;;;;5015214;28;20026;-39
2022/12/28 05:13:00;;;;;;;21.55;4.15;;;;;;;;;;4997586;28;20060;-39
2022/12/28 05:15:27;;;;;;;19.58;4.15;;;;;;;;;;5015230;28;20061;-39
2022/12/28 05:17:55;;;;;;;21.83;4.00;;;;;;;;;;5015283;28;20033;-39
2022/12/28 05:20:22;;;;;;;24.88;4.68;;;;;;;;;;5015074;28;20034;-39
2022/12/28 05:22:49;;;;;;;28.73;4.28;;;;;;;;;;5014916;28;20431;-39
2022/12/28 05:25:15;;;;;;;20.48;3.92;;;;;;;;;;5015163;28;20045;-39
2022/12/28 05:27:42;;;;;;;19.92;4.03;;;;;;;;;;5014986;28;20746;-39
2022/12/28 05:30:10;;;;;;;21.15;4.45;;;;;;;;;;5014872;28;20034;-39
2022/12/28 05:32:36;;;;;;;50.30;5.47;;;;;;;;;;5014815;28;20029;-39
2022/12/28 05:35:03;;;;;;;26.88;5.07;;;;;;;;;;5014947;28;20033;-39
2022/12/28 05:37:31;;;;;;;26.55;4.90;;;;;;;;;;5014918;28;20161;-39
2022/12/28 05:39:58;;;;;;;22.20;4.82;;;;;;;;;;5014623;28;20054;-39
2022/12/28 05:42:24;;;;;;;23.35;4.57;;;;;;;;;;5014660;28;20026;-39
2022/12/28 05:44:51;;;;;;;22.45;4.55;;;;;;;;;;5014685;28;20033;-39
2022/12/28 05:47:18;;;;;;;27.75;5.43;;;;;;;;;;5014564;28;20720;-39
2022/12/28 05:49:46;;;;;;;21.98;4.70;;;;;;;;;;5014570;28;20595;-39
2022/12/28 05:52:13;;;;;;;23.27;4.70;;;;;;;;;;5014508;28;20116;-39
2022/12/28 05:54:40;;;;;;;23.77;4.88;;;;;;;;;;5014479;28;20026;-39
2022/12/28 05:57:07;;;;;;;23.73;4.72;;;;;;;;;;5014172;28;20026;-39
2022/12/28 05:59:33;;;;;;;22.70;4.68;;;;;;;;;;5014421;28;20038;-39
2022/12/28 06:02:00;;;;;;;21.10;4.68;;;;;;;;;;5022681;28;20022;-39
2022/12/28 06:04:27;;;;;;;18.33;4.40;;;;;;;;;;5034102;28;20598;-39
2022/12/28 06:06:54;;;;;;;21.98;4.60;;;;;;;;;;5033719;28;20041;-39
2022/12/28 06:09:21;;;;;;;31.52;5.10;;;;;;;;;;5033880;28;20026;-39
2022/12/28 06:11:48;;;;;;;15.70;4.07;;;;;;;;;;5034018;28;20041;-39
2022/12/28 06:14:15;;;;;;;22.20;4.47;;;;;;;;;;5032835;28;20033;-39
2022/12/28 06:16:42;;;;;;;23.77;4.43;;;;;;;;;;5033775;28;20026;-39
2022/12/28 06:19:11;;;;;;;21.17;4.63;;;;;;;;;;5033670;28;20468;-39
2022/12/28 06:21:39;;;;;;;30.23;4.82;;;;;;;;;;5033886;28;20030;-39
2022/12/28 06:24:06;;;;;;;23.42;4.70;;;;;;;;;;5033722;28;20100;-39
2022/12/28 06:26:34;;;;;;;32.15;5.50;;;;;;;;;;5033632;28;20116;-40
2022/12/28 06:29:02;;;;;;;25.75;4.45;;;;;;;;;;5033732;28;20038;-39
2022/12/28 06:31:32;;;;;;;41.53;5.53;;;;;;;;;;5033691;28;20056;-40
2022/12/28 06:34:00;;;;;;;31.95;5.38;;;;;;;;;;5033359;28;20041;-39
2022/12/28 06:36:28;;;;;;;31.20;5.03;;;;;;;;;;5015570;28;20075;-39
2022/12/28 06:38:56;;;;;;;33.92;6.20;;;;;;;;;;5033367;28;20037;-39
2022/12/28 06:41:23;;;;;;;29.38;5.13;;;;;;;;;;5033462;28;20450;-39
2022/12/28 06:43:51;;;;;;;28.15;4.95;;;;;;;;;;5033292;28;20039;-38
2022/12/28 06:46:19;;;;;;;30.83;5.10;;;;;;;;;;5033465;28;20030;-41
2022/12/28 06:48:46;;;;;;;29.67;4.90;;;;;;;;;;5033151;28;20033;-39
2022/12/28 06:51:19;;;;;;;54.00;7.30;;;;;;;;;;5033248;28;20049;-39
2022/12/28 06:53:47;;;;;;;40.45;6.05;;;;;;;;;;5033182;28;20048;-39
2022/12/28 06:56:17;;;;;;;35.35;5.50;;;;;;;;;;5033247;28;20415;-38
2022/12/28 06:58:44;;;;;;;31.70;5.55;;;;;;;;;;5033210;28;20038;-39
2022/12/28 07:01:20;;;;;;;26.38;5.18;;;;;;;;;;5033014;28;20025;-39
2022/12/28 07:03:48;;;;;;;40.03;5.63;;;;;;;;;;5032737;28;20479;-40
2022/12/28 07:06:16;;;;;;;28.75;5.32;;;;;;;;;;5015197;28;20387;-39
2022/12/28 07:08:43;;;;;;;27.77;5.65;;;;;;;;;;5015011;28;20033;-39
2022/12/28 07:11:15;;;;;;;27.13;4.97;;;;;;;;;;5032892;28;20808;-39
2022/12/28 07:13:42;;;;;;;25.38;5.28;;;;;;;;;;5015361;28;20033;-41
2022/12/28 07:16:14;;;;;;;31.58;4.85;;;;;;;;;;5032805;28;20037;-40
2022/12/28 07:18:41;;;;;;;26.80;5.18;;;;;;;;;;5032771;28;20029;-41
2022/12/28 07:21:10;;;;;;;36.40;4.72;;;;;;;;;;5032702;28;20025;-41
2022/12/28 07:23:37;;;;;;;23.10;5.25;;;;;;;;;;5032501;28;20026;-40
2022/12/28 07:26:11;;;;;;;26.63;4.90;;;;;;;;;;5032484;28;20490;-41
2022/12/28 07:28:42;;;;;;;25.92;4.80;;;;;;;;;;5032573;28;20066;-39
2022/12/28 07:31:15;;;;;;;42.40;5.95;;;;;;;;;;5032545;28;20102;-39
2022/12/28 07:33:42;;;;;;;30.08;4.93;;;;;;;;;;5032093;28;20037;-39
2022/12/28 07:36:11;;;;;;;34.00;5.43;;;;;;;;;;5032432;28;20027;-39
2022/12/28 07:38:38;;;;;;;31.15;5.70;;;;;;;;;;5032335;28;20061;-39
2022/12/28 07:41:06;;;;;;;23.40;4.78;;;;;;;;;;5032221;28;20095;-39
2022/12/28 07:43:33;;;;;;;24.17;4.93;;;;;;;;;;5032203;28;20033;-39
2022/12/28 07:46:07;;;;;;;27.75;4.63;;;;;;;;;;5032453;28;20092;-39
2022/12/28 07:48:35;;;;;;;26.33;5.05;;;;;;;;;;5032251;28;20029;-39
2022/12/28 07:51:07;;;;;;;26.80;4.65;;;;;;;;;;5031661;28;20099;-39
2022/12/28 07:53:34;;;;;;;27.33;5.47;;;;;;;;;;5014361;28;20034;-41
2022/12/28 07:56:01;;;;;;;38.97;5.95;;;;;;;;;;5032259;28;20510;-40
2022/12/28 07:58:28;;;;;;;33.67;5.65;;;;;;;;;;5032087;28;20495;-40
2022/12/28 08:00:55;;;;;;;28.95;5.13;;;;;;;;;;5032016;28;20418;-40
2022/12/28 08:03:22;;;;;;;24.40;5.38;;;;;;;;;;5032056;28;20516;-41
2022/12/28 08:05:49;;;;;;;28.13;5.47;;;;;;;;;;5032119;28;20021;-41
2022/12/28 08:08:15;;;;;;;25.48;4.95;;;;;;;;;;5031998;28;20072;-40
2022/12/28 08:10:42;;;;;;;29.00;4.93;;;;;;;;;;5014223;28;20030;-41
2022/12/28 08:13:09;;;;;;;24.67;4.90;;;;;;;;;;5031904;28;20495;-41
2022/12/28 08:15:36;;;;;;;24.10;5.10;;;;;;;;;;5031944;28;20034;-40
2022/12/28 08:18:03;;;;;;;22.75;5.32;;;;;;;;;;5031835;28;20029;-40
2022/12/28 08:20:30;;;;;;;27.13;4.72;;;;;;;;;;5031932;28;20057;-40
2022/12/28 08:22:57;;;;;;;36.90;5.63;;;;;;;;;;5031836;28;20208;-40
2022/12/28 08:25:24;;;;;;;23.38;5.22;;;;;;;;;;5031893;28;20034;-40
2022/12/28 08:27:51;;;;;;;25.70;4.82;;;;;;;;;;5031749;28;20022;-40
2022/12/28 08:30:18;;;;;;;27.85;4.75;;;;;;;;;;5031778;28;20483;-40
2022/12/28 08:32:45;;;;;;;25.60;5.30;;;;;;;;;;5031570;28;20025;-40
2022/12/28 08:35:12;;;;;;;29.13;5.57;;;;;;;;;;5031713;28;20033;-40
2022/12/28 08:37:39;;;;;;;25.55;5.35;;;;;;;;;;5033232;28;20440;-40
2022/12/28 08:40:06;;;;;;;27.17;5.97;;;;;;;;;;5035265;28;20443;-40
2022/12/28 08:42:33;;;;;;;33.38;5.35;;;;;;;;;;5035676;28;20035;-40
2022/12/28 08:45:00;;;;;;;21.88;5.10;;;;;;;;;;5035637;28;20021;-40
2022/12/28 08:47:27;;;;;;;22.90;4.20;;;;;;;;;;5035698;28;20430;-40
2022/12/28 08:49:54;;;;;;;23.20;4.60;;;;;;;;;;5035599;28;20113;-40
2022/12/28 08:52:21;;;;;;;32.88;5.40;;;;;;;;;;5035386;28;20098;-40
2022/12/28 08:54:48;;;;;;;41.35;6.65;;;;;;;;;;5035133;28;20045;-40
2022/12/28 08:57:14;;;;;;;30.55;5.13;;;;;;;;;;5035237;28;20100;-40
2022/12/28 08:59:41;;;;;;;39.80;5.65;;;;;;;;;;5035162;28;20036;-40
2022/12/28 09:02:12;;;;;;;78.22;9.80;;;;;;;;;;5035164;28;20103;-40
2022/12/28 09:04:39;;;;;;;76.47;8.60;;;;;;;;;;5034928;28;20048;-40
2022/12/28 09:07:06;;;;;;;81.97;9.73;;;;;;;;;;5035157;28;20041;-40
2022/12/28 09:09:33;;;;;;;58.63;8.80;;;;;;;;;;5035073;28;20040;-40
2022/12/28 09:12:00;;;;;;;76.65;10.68;;;;;;;;;;5034901;28;20029;-40
2022/12/28 09:14:27;;;;;;;87.07;11.05;;;;;;;;;;5035021;28;20036;-40
2022/12/28 09:16:54;;;;;;;105.80;12.35;;;;;;;;;;5034877;28;20553;-40
2022/12/28 09:19:22;;;;;;;106.07;12.20;;;;;;;;;;5034818;28;20067;-40
2022/12/28 09:21:51;;;;;;;78.20;10.10;;;;;;;;;;5034913;28;20124;-40
2022/12/28 09:24:18;;;;;;;77.25;10.57;;;;;;;;;;5017087;28;20030;-40
2022/12/28 09:26:45;;;;;;;84.00;10.25;;;;;;;;;;5034660;28;20051;-40
2022/12/28 09:29:13;;;;;;;63.05;8.70;;;;;;;;;;5034862;28;20025;-40
2022/12/28 09:31:40;;;;;;;80.97;9.70;;;;;;;;;;5034689;28;20064;-40
2022/12/28 09:34:10;;;;;;;68.97;9.75;;;;;;;;;;5034754;28;20053;-40
2022/12/28 09:36:38;;;;;;;86.35;11.57;;;;;;;;;;5034359;28;20532;-40
2022/12/28 09:39:12;;;;;;;79.53;9.23;;;;;;;;;;5034327;28;20395;-39
2022/12/28 09:41:46;;;;;;;70.10;8.38;;;;;;;;;;5034564;28;20083;-40
2022/12/28 09:44:16;;;;;;;68.13;8.73;;;;;;;;;;5034364;28;20045;-40
2022/12/28 09:46:45;;;;;;;81.53;9.57;;;;;;;;;;5034387;28;20408;-40
2022/12/28 09:49:16;;;;;;;58.75;7.63;;;;;;;;;;5033064;28;20029;-40
2022/12/28 09:51:50;;;;;;;49.17;7.57;;;;;;;;;;5034413;28;20029;-40
2022/12/28 09:54:17;;;;;;;88.18;10.65;;;;;;;;;;5034367;28;20487;-40
2022/12/28 09:56:46;;;;;;;54.58;7.80;;;;;;;;;;5034264;28;20392;-39
2022/12/28 09:59:18;;;;;;;52.70;7.72;;;;;;;;;;5034168;28;20048;-39
2022/12/28 10:01:49;;;;;;;58.42;8.27;;;;;;;;;;5034086;28;20048;-39
2022/12/28 10:04:16;;;;;;;57.55;7.55;;;;;;;;;;5034191;28;20116;-40
2022/12/28 10:06:43;;;;;;;75.63;10.18;;;;;;;;;;5034078;28;20395;-40
2022/12/28 10:09:29;;;;;;;56.70;7.55;;;;;;;;;;5034126;28;20029;-40
2022/12/28 10:11:57;;;;;;;59.38;9.13;;;;;;;;;;5033990;28;20029;-40
2022/12/28 10:14:33;;;;;;;55.88;8.02;;;;;;;;;;5034035;28;20026;-40
2022/12/28 10:17:01;;;;;;;63.05;9.27;;;;;;;;;;5034013;28;20108;-40
2022/12/28 10:19:28;;;;;;;54.72;8.40;;;;;;;;;;5033793;28;20027;-40
2022/12/28 10:22:03;;;;;;;60.13;9.68;;;;;;;;;;5033755;28;20025;-40
2022/12/28 10:24:30;;;;;;;62.78;8.30;;;;;;;;;;5033709;28;20496;-40
2022/12/28 10:26:58;;;;;;;90.47;11.27;;;;;;;;;;5033655;28;20021;-40
2022/12/28 10:29:26;;;;;;;76.47;9.27;;;;;;;;;;5033730;28;20026;-40
2022/12/28 10:32:11;;;;;;;140.45;15.98;;;;;;;;;;5018553;28;20022;-39
2022/12/28 10:34:52;;;;;;;112.05;15.30;;;;;;;;;;5013509;28;20034;-40
2022/12/28 10:37:19;;;;;;;147.57;16.45;;;;;;;;;;5013576;28;20026;-40
2022/12/28 10:39:51;;;;;;;129.18;15.43;;;;;;;;;;5008923;28;20473;-40
2022/12/28 10:42:23;;;;;;;131.13;14.55;;;;;;;;;;4994040;28;20031;-40
2022/12/28 10:44:49;;;;;;;;;;;;;;;;;;4994361;28;20034;-40
2022/12/28 10:47:18;;;;;;;128.15;14.50;;;;;;;;;;4993989;28;20406;-40
2022/12/28 10:49:49;;;;;;;121.45;14.88;;;;;;;;;;4994011;28;20105;-40
2022/12/28 10:52:19;;;;;;;115.78;13.75;;;;;;;;;;4993720;28;20121;-40
2022/12/28 10:54:47;;;;;;;108.68;13.65;;;;;;;;;;4993807;28;20022;-40
2022/12/28 10:57:18;;;;;;;84.40;12.18;;;;;;;;;;4993768;28;20036;-40
2022/12/28 10:59:49;;;;;;;101.85;12.65;;;;;;;;;;4993421;28;20022;-40
2022/12/28 11:02:31;;;;;;;94.68;12.73;;;;;;;;;;4993539;28;20029;-40
2022/12/28 11:05:02;;;;;;;83.65;12.45;;;;;;;;;;4993480;28;20114;-41
2022/12/28 11:07:34;;;;;;;83.57;11.20;;;;;;;;;;4993585;28;20048;-40
2022/12/28 11:10:16;;;;;;;72.30;11.13;;;;;;;;;;4993588;28;20022;-40
2022/12/28 11:12:44;;;;;;;78.45;11.32;;;;;;;;;;4993414;28;20424;-40
2022/12/28 11:15:16;;;;;;;67.70;11.27;;;;;;;;;;4993456;28;20022;-39
2022/12/28 11:17:43;;;;;;;70.68;10.48;;;;;;;;;;4993396;28;20496;-39
2022/12/28 11:20:17;;;;;;;61.47;9.20;;;;;;;;;;4993395;28;20030;-39
2022/12/28 11:22:45;;;;;;;63.67;9.38;;;;;;;;;;4993297;28;20026;-39
2022/12/28 11:25:16;;;;;;;63.33;9.15;;;;;;;;;;4993383;28;20034;-39
2022/12/28 11:27:43;;;;;;;50.40;7.50;;;;;;;;;;4993085;28;20037;-39
2022/12/28 11:30:14;;;;;;;51.83;7.53;;;;;;;;;;4993107;28;20034;-38
2022/12/28 11:33:00;;;;;;;43.17;7.80;;;;;;;;;;4993030;28;20022;-39
2022/12/28 11:35:31;;;;;;;37.03;6.30;;;;;;;;;;4993166;28;20496;-39
2022/12/28 11:38:00;;;;;;;45.42;6.68;;;;;;;;;;4993062;28;20038;-38
2022/12/28 11:40:42;;;;;;;43.15;7.38;;;;;;;;;;5005054;28;20073;-38
2022/12/28 11:43:28;;;;;;;44.03;7.15;;;;;;;;;;5012607;28;20427;-39
2022/12/28 11:45:54;;;;;;;41.55;6.82;;;;;;;;;;5012507;28;20069;-40
2022/12/28 11:48:39;;;;;;;35.38;6.50;;;;;;;;;;5012416;28;20476;-38
2022/12/28 11:51:15;;;;;;;40.40;7.25;;;;;;;;;;5012370;28;20137;-41
2022/12/28 11:53:45;;;;;;;36.75;5.95;;;;;;;;;;5012298;28;20072;-39
2022/12/28 11:56:16;;;;;;;29.50;6.60;;;;;;;;;;5012340;28;20022;-39
2022/12/28 11:58:45;;;;;;;36.90;6.80;;;;;;;;;;5012359;28;20068;-39
2022/12/28 12:01:33;;;;;;;40.03;6.60;;;;;;;;;;5012334;28;20357;-39
2022/12/28 12:04:00;;;;;;;30.67;6.57;;;;;;;;;;5012177;28;20092;-40
2022/12/28 12:06:42;;;;;;;29.77;5.75;;;;;;;;;;5019150;28;20030;-40
2022/12/28 12:09:24;;;;;;;31.35;5.57;;;;;;;;;;5020935;28;20056;-40
2022/12/28 12:11:55;;;;;;;34.30;5.40;;;;;;;;;;5020221;28;20022;-40
2022/12/28 12:14:28;;;;;;;39.55;5.85;;;;;;;;;;5020019;28;20053;-40
2022/12/28 12:17:16;;;;;;;31.95;5.50;;;;;;;;;;5019625;28;20115;-40
2022/12/28 12:19:48;;;;;;;32.08;5.93;;;;;;;;;;5020405;28;20022;-40
2022/12/28 12:22:35;;;;;;;27.17;5.43;;;;;;;;;;5030350;28;20395;-40
2022/12/28 12:25:08;;;;;;;32.97;5.93;;;;;;;;;;5031824;28;20383;-40
2022/12/28 12:27:47;;;;;;;41.88;6.00;;;;;;;;;;5031911;28;20099;-40
2022/12/28 12:30:16;;;;;;;40.65;5.93;;;;;;;;;;5012208;28;20026;-40
2022/12/28 12:32:43;;;;;;;25.33;5.70;;;;;;;;;;5011968;28;20022;-40
2022/12/28 12:35:14;;;;;;;30.40;6.18;;;;;;;;;;5030124;28;20037;-40
2022/12/28 12:37:48;;;;;;;27.37;5.13;;;;;;;;;;5031586;28;20113;-40
2022/12/28 12:40:15;;;;;;;38.10;6.05;;;;;;;;;;5031259;28;20411;-40
2022/12/28 12:43:00;;;;;;;50.50;7.10;;;;;;;;;;5031433;28;20036;-40
2022/12/28 12:45:30;;;;;;;42.55;6.07;;;;;;;;;;5031254;28;20491;-40
2022/12/28 12:48:15;;;;;;;29.20;6.25;;;;;;;;;;5031438;28;20037;-40
2022/12/28 12:51:03;;;;;;;25.85;5.18;;;;;;;;;;5031363;28;20026;-40
2022/12/28 12:53:48;;;;;;;39.15;6.15;;;;;;;;;;5031060;28;20040;-40
2022/12/28 12:56:20;;;;;;;28.33;4.85;;;;;;;;;;5031300;28;20037;-40
2022/12/28 12:58:47;;;;;;;42.67;6.80;;;;;;;;;;5013427;28;20088;-39
2022/12/28 13:01:17;;;;;;;49.22;7.00;;;;;;;;;;5031245;28;20069;-39
2022/12/28 13:03:48;;;;;;;45.53;6.85;;;;;;;;;;5031166;28;20755;-39
2022/12/28 13:06:18;;;;;;;40.08;6.95;;;;;;;;;;5031122;28;20111;-39
2022/12/28 13:08:48;;;;;;;43.22;7.80;;;;;;;;;;5017183;28;20061;-39
2022/12/28 13:11:15;;;;;;;63.35;7.97;;;;;;;;;;5013627;28;20032;-39
2022/12/28 13:13:44;;;;;;;63.03;8.82;;;;;;;;;;5031157;28;20025;-39
2022/12/28 13:16:14;;;;;;;65.05;8.13;;;;;;;;;;5030997;28;20046;-39
2022/12/28 13:18:52;;;;;;;60.72;7.18;;;;;;;;;;5030640;28;20056;-39
2022/12/28 13:21:19;;;;;;;79.43;8.40;;;;;;;;;;5029518;28;20072;-39
2022/12/28 13:23:46;;;;;;;70.03;8.35;;;;;;;;;;5032764;28;20040;-38
2022/12/28 13:26:15;;;;;;;71.75;8.43;;;;;;;;;;5034570;28;20052;-38
2022/12/28 13:28:52;;;;;;;74.05;7.97;;;;;;;;;;5034419;28;20045;-39
2022/12/28 13:31:23;;;;;;;67.32;8.60;;;;;;;;;;5034532;28;20037;-38
2022/12/28 13:33:54;;;;;;;71.20;8.27;;;;;;;;;;5029964;28;20033;-38
2022/12/28 13:36:21;;;;;;;46.13;6.22;;;;;;;;;;5034497;28;20052;-38
2022/12/28 13:38:59;;;;;;;46.17;7.65;;;;;;;;;;5034553;28;20077;-38
2022/12/28 13:41:27;;;;;;;61.80;7.60;;;;;;;;;;5034432;28;20550;-38
2022/12/28 13:44:11;;;;;;;48.35;6.88;;;;;;;;;;5034533;28;20026;-38
2022/12/28 13:46:40;;;;;;;55.58;7.40;;;;;;;;;;5034441;28;20484;-38
2022/12/28 13:49:07;;;;;;;48.90;7.25;;;;;;;;;;5034401;28;20108;-38
2022/12/28 13:51:38;;;;;;;42.40;7.35;;;;;;;;;;5034094;28;20032;-38
2022/12/28 13:54:06;;;;;;;49.95;6.68;;;;;;;;;;5034096;28;20025;-38
2022/12/28 13:56:35;;;;;;;44.92;6.63;;;;;;;;;;5034143;28;20101;-38
2022/12/28 13:59:04;;;;;;;43.55;6.28;;;;;;;;;;5034332;28;20036;-38
2022/12/28 14:01:36;;;;;;;36.22;6.45;;;;;;;;;;5034156;28;20365;-38
2022/12/28 14:04:05;;;;;;;37.90;6.28;;;;;;;;;;5034259;28;20060;-38
2022/12/28 14:06:32;;;;;;;37.33;6.93;;;;;;;;;;5034185;28;20025;-38
2022/12/28 14:08:59;;;;;;;38.67;5.53;;;;;;;;;;5034014;28;20038;-38
2022/12/28 14:11:27;;;;;;;39.75;6.60;;;;;;;;;;5016200;28;20022;-38
2022/12/28 14:13:54;;;;;;;41.53;6.28;;;;;;;;;;5034054;28;20079;-38
2022/12/28 14:16:22;;;;;;;37.45;6.18;;;;;;;;;;5034006;28;20029;-38
2022/12/28 14:18:49;;;;;;;35.22;5.68;;;;;;;;;;5033929;28;20033;-38
2022/12/28 14:21:16;;;;;;;32.95;6.25;;;;;;;;;;5033873;28;20033;-38
2022/12/28 14:23:43;;;;;;;36.50;6.40;;;;;;;;;;5033965;28;20037;-39
2022/12/28 14:26:17;;;;;;;32.92;5.68;;;;;;;;;;5033824;28;20050;-38
2022/12/28 14:28:47;;;;;;;28.70;5.18;;;;;;;;;;5033744;28;20048;-38
2022/12/28 14:31:19;;;;;;;23.35;5.10;;;;;;;;;;5033685;28;20504;-38
2022/12/28 14:34:00;;;;;;;26.80;4.53;;;;;;;;;;5033689;28;20480;-38
2022/12/28 14:36:29;;;;;;;22.85;4.97;;;;;;;;;;5032868;28;20492;-38
2022/12/28 14:38:57;;;;;;;31.98;5.80;;;;;;;;;;5033601;28;20107;-38
2022/12/28 14:41:35;;;;;;;27.33;5.45;;;;;;;;;;5033528;28;20033;-38
2022/12/28 14:44:05;;;;;;;23.35;4.95;;;;;;;;;;5033522;28;20155;-38
2022/12/28 14:46:31;;;;;;;23.35;4.90;;;;;;;;;;5033269;28;20033;-38
2022/12/28 14:48:59;;;;;;;27.90;4.50;;;;;;;;;;5033284;28;20045;-38
2022/12/28 14:51:27;;;;;;;21.63;4.80;;;;;;;;;;5033318;28;20100;-38
2022/12/28 14:54:12;;;;;;;28.33;4.70;;;;;;;;;;5033429;28;20029;-38
2022/12/28 14:56:40;;;;;;;21.45;3.97;;;;;;;;;;5033062;28;20033;-38
2022/12/28 14:59:14;;;;;;;27.60;4.93;;;;;;;;;;5033102;28;20026;-38
2022/12/28 15:01:43;;;;;;;27.10;5.43;;;;;;;;;;5016049;28;20040;-41
2022/12/28 15:04:24;;;;;;;22.00;4.90;;;;;;;;;;5012954;28;20036;-40
2022/12/28 15:06:51;;;;;;;21.60;4.97;;;;;;;;;;5012990;28;20026;-42
2022/12/28 15:09:18;;;;;;;21.95;4.00;;;;;;;;;;5013151;28;20029;-42